sensor_id;sensor_type;location;lat;lon;timestamp;pressure;altitude;pressure_sealevel;temperature;humidity
12636;BME280;6383;50.830;7.210;2022-11-23T00:01:11;99064.53;;;10.09;77.04
12636;BME280;6383;50.830;7.210;2022-11-23T00:03:41;99063.09;;;10.12;76.64
12636;BME280;6383;50.830;7.210;2022-11-23T00:06:08;99066.59;;;10.12;76.09
12636;BME280;6383;50.830;7.210;2022-11-23T00:09:05;99067.88;;;10.15;76.79
12636;BME280;6383;50.830;7.210;2022-11-23T00:12:00;99067.97;;;10.06;76.75
12636;BME280;6383;50.830;7.210;2022-11-23T00:14:56;99070.91;;;10.13;77.02
12636;BME280;6383;50.830;7.210;2022-11-23T00:17:53;99068.34;;;10.17;76.39
12636;BME280;6383;50.830;7.210;2022-11-23T00:20:50;99068.03;;;10.18;77.10
12636;BME280;6383;50.830;7.210;2022-11-23T00:23:45;99068.81;;;10.19;76.51
12636;BME280;6383;50.830;7.210;2022-11-23T00:26:42;99075.53;;;10.21;76.58
12636;BME280;6383;50.830;7.210;2022-11-23T00:29:38;99080.63;;;10.23;76.96
12636;BME280;6383;50.830;7.210;2022-11-23T00:32:35;99078.34;;;10.25;76.69
12636;BME280;6383;50.830;7.210;2022-11-23T00:35:30;99076.09;;;10.27;76.45
12636;BME280;6383;50.830;7.210;2022-11-23T00:38:27;99081.19;;;10.29;76.59
12636;BME280;6383;50.830;7.210;2022-11-23T00:41:24;99087.84;;;10.19;76.77
12636;BME280;6383;50.830;7.210;2022-11-23T00:44:21;99086.88;;;10.23;76.40
12636;BME280;6383;50.830;7.210;2022-11-23T00:47:19;99088.09;;;10.26;76.74
12636;BME280;6383;50.830;7.210;2022-11-23T00:50:16;99090.50;;;10.28;76.35
12636;BME280;6383;50.830;7.210;2022-11-23T00:53:11;99090.16;;;10.29;76.71
12636;BME280;6383;50.830;7.210;2022-11-23T00:56:07;99090.56;;;10.19;76.42
12636;BME280;6383;50.830;7.210;2022-11-23T00:59:03;99090.34;;;10.24;76.21
12636;BME280;6383;50.830;7.210;2022-11-23T01:01:59;99090.81;;;10.26;76.77
12636;BME280;6383;50.830;7.210;2022-11-23T01:04:56;99095.94;;;10.28;76.37
12636;BME280;6383;50.830;7.210;2022-11-23T01:07:54;99099.91;;;10.30;76.77
12636;BME280;6383;50.830;7.210;2022-11-23T01:10:50;99099.56;;;10.32;76.63
12636;BME280;6383;50.830;7.210;2022-11-23T01:13:46;99102.28;;;10.32;76.32
12636;BME280;6383;50.830;7.210;2022-11-23T01:16:43;99104.22;;;10.31;76.39
12636;BME280;6383;50.830;7.210;2022-11-23T01:19:40;99106.94;;;10.31;76.08
12636;BME280;6383;50.830;7.210;2022-11-23T01:22:36;99107.41;;;10.33;76.68
12636;BME280;6383;50.830;7.210;2022-11-23T01:25:35;99113.78;;;10.37;76.42
12636;BME280;6383;50.830;7.210;2022-11-23T01:28:33;99112.66;;;10.38;75.80
12636;BME280;6383;50.830;7.210;2022-11-23T01:31:28;99118.09;;;10.38;76.24
12636;BME280;6383;50.830;7.210;2022-11-23T01:34:23;99119.59;;;10.27;76.64
12636;BME280;6383;50.830;7.210;2022-11-23T01:37:20;99124.78;;;10.20;76.08
12636;BME280;6383;50.830;7.210;2022-11-23T01:40:17;99122.31;;;10.27;76.80
12636;BME280;6383;50.830;7.210;2022-11-23T01:43:16;99120.53;;;10.31;75.83
12636;BME280;6383;50.830;7.210;2022-11-23T01:46:11;99118.59;;;10.32;76.30
12636;BME280;6383;50.830;7.210;2022-11-23T01:49:08;99126.78;;;10.32;76.85
12636;BME280;6383;50.830;7.210;2022-11-23T01:52:05;99128.78;;;10.22;76.95
12636;BME280;6383;50.830;7.210;2022-11-23T01:55:00;99121.59;;;10.18;76.28
12636;BME280;6383;50.830;7.210;2022-11-23T01:57:57;99130.38;;;10.23;76.41
12636;BME280;6383;50.830;7.210;2022-11-23T02:00:54;99120.31;;;10.15;76.61
12636;BME280;6383;50.830;7.210;2022-11-23T02:03:50;99131.50;;;10.22;77.17
12636;BME280;6383;50.830;7.210;2022-11-23T02:06:49;99128.41;;;10.24;76.59
12636;BME280;6383;50.830;7.210;2022-11-23T02:09:46;99128.88;;;10.26;77.28
12636;BME280;6383;50.830;7.210;2022-11-23T02:12:42;99129.03;;;10.30;76.65
12636;BME280;6383;50.830;7.210;2022-11-23T02:15:39;99129.81;;;10.30;77.25
12636;BME280;6383;50.830;7.210;2022-11-23T02:18:36;99128.38;;;10.33;76.54
12636;BME280;6383;50.830;7.210;2022-11-23T02:21:34;99131.06;;;10.33;76.47
12636;BME280;6383;50.830;7.210;2022-11-23T02:24:32;99131.88;;;10.33;76.28
12636;BME280;6383;50.830;7.210;2022-11-23T02:27:32;99140.03;;;10.33;76.77
12636;BME280;6383;50.830;7.210;2022-11-23T02:30:29;99135.72;;;10.32;76.74
12636;BME280;6383;50.830;7.210;2022-11-23T02:33:26;99137.31;;;10.33;77.37
12636;BME280;6383;50.830;7.210;2022-11-23T02:36:33;99139.25;;;10.33;76.82
12636;BME280;6383;50.830;7.210;2022-11-23T02:39:35;99128.38;;;10.33;76.55
12636;BME280;6383;50.830;7.210;2022-11-23T02:42:33;99138.09;;;10.34;76.67
12636;BME280;6383;50.830;7.210;2022-11-23T02:45:33;99141.97;;;10.33;76.60
12636;BME280;6383;50.830;7.210;2022-11-23T02:48:30;99140.38;;;10.32;76.81
12636;BME280;6383;50.830;7.210;2022-11-23T02:51:26;99150.13;;;10.33;76.74
12636;BME280;6383;50.830;7.210;2022-11-23T02:54:22;99150.13;;;10.33;76.83
12636;BME280;6383;50.830;7.210;2022-11-23T02:57:18;99145.00;;;10.31;76.44
12636;BME280;6383;50.830;7.210;2022-11-23T03:00:17;99139.91;;;10.30;76.63
12636;BME280;6383;50.830;7.210;2022-11-23T03:03:13;99145.34;;;10.30;77.21
12636;BME280;6383;50.830;7.210;2022-11-23T03:06:09;99142.69;;;10.21;76.75
12636;BME280;6383;50.830;7.210;2022-11-23T03:09:05;99139.75;;;10.26;76.63
12636;BME280;6383;50.830;7.210;2022-11-23T03:12:02;99141.34;;;10.27;76.90
12636;BME280;6383;50.830;7.210;2022-11-23T03:14:57;99135.91;;;10.27;76.64
12636;BME280;6383;50.830;7.210;2022-11-23T03:17:56;99129.69;;;10.27;76.79
12636;BME280;6383;50.830;7.210;2022-11-23T03:20:51;99135.59;;;10.29;76.96
12636;BME280;6383;50.830;7.210;2022-11-23T03:23:46;99142.16;;;10.28;76.41
12636;BME280;6383;50.830;7.210;2022-11-23T03:26:42;99134.78;;;10.28;76.80
12636;BME280;6383;50.830;7.210;2022-11-23T03:29:38;99129.34;;;10.28;76.61
12636;BME280;6383;50.830;7.210;2022-11-23T03:32:35;99129.03;;;10.30;76.61
12636;BME280;6383;50.830;7.210;2022-11-23T03:35:32;99140.38;;;10.32;76.54
12636;BME280;6383;50.830;7.210;2022-11-23T03:38:27;99134.94;;;10.32;76.45
12636;BME280;6383;50.830;7.210;2022-11-23T03:41:23;99139.25;;;10.33;76.36
12636;BME280;6383;50.830;7.210;2022-11-23T03:44:19;99143.88;;;10.32;76.21
12636;BME280;6383;50.830;7.210;2022-11-23T03:47:15;99147.72;;;10.31;76.42
12636;BME280;6383;50.830;7.210;2022-11-23T03:50:11;99151.25;;;10.32;76.23
12636;BME280;6383;50.830;7.210;2022-11-23T03:53:08;99145.47;;;10.33;76.13
12636;BME280;6383;50.830;7.210;2022-11-23T03:56:05;99146.28;;;10.34;76.18
12636;BME280;6383;50.830;7.210;2022-11-23T03:59:04;99149.31;;;10.32;75.86
12636;BME280;6383;50.830;7.210;2022-11-23T04:02:01;99152.84;;;10.33;75.93
12636;BME280;6383;50.830;7.210;2022-11-23T04:04:57;99154.75;;;10.32;75.98
12636;BME280;6383;50.830;7.210;2022-11-23T04:07:58;99148.84;;;10.30;75.77
12636;BME280;6383;50.830;7.210;2022-11-23T04:11:01;99151.56;;;10.30;75.41
12636;BME280;6383;50.830;7.210;2022-11-23T04:13:58;99150.13;;;10.33;75.48
12636;BME280;6383;50.830;7.210;2022-11-23T04:16:54;99156.34;;;10.33;75.85
12636;BME280;6383;50.830;7.210;2022-11-23T04:19:51;99155.69;;;10.36;75.34
12636;BME280;6383;50.830;7.210;2022-11-23T04:22:49;99152.28;;;10.39;75.95
12636;BME280;6383;50.830;7.210;2022-11-23T04:25:45;99147.53;;;10.36;75.65
12636;BME280;6383;50.830;7.210;2022-11-23T04:29:01;99151.03;;;10.37;75.50
12636;BME280;6383;50.830;7.210;2022-11-23T04:31:57;99148.00;;;10.38;75.26
12636;BME280;6383;50.830;7.210;2022-11-23T04:34:59;99153.09;;;10.40;75.26
12636;BME280;6383;50.830;7.210;2022-11-23T04:38:02;99149.00;;;10.34;75.41
12636;BME280;6383;50.830;7.210;2022-11-23T04:41:05;99145.47;;;10.33;75.25
12636;BME280;6383;50.830;7.210;2022-11-23T04:44:06;99150.13;;;10.33;75.22
12636;BME280;6383;50.830;7.210;2022-11-23T04:47:08;99153.31;;;10.35;74.96
12636;BME280;6383;50.830;7.210;2022-11-23T04:50:09;99163.06;;;10.36;74.87
12636;BME280;6383;50.830;7.210;2022-11-23T04:53:15;99156.03;;;10.35;75.28
12636;BME280;6383;50.830;7.210;2022-11-23T04:56:16;99156.03;;;10.35;75.23
12636;BME280;6383;50.830;7.210;2022-11-23T04:59:19;99161.47;;;10.35;75.78
12636;BME280;6383;50.830;7.210;2022-11-23T05:02:26;99163.72;;;10.33;75.08
12636;BME280;6383;50.830;7.210;2022-11-23T05:05:21;99163.38;;;10.34;75.00
12636;BME280;6383;50.830;7.210;2022-11-23T05:08:21;99166.91;;;10.35;75.40
12636;BME280;6383;50.830;7.210;2022-11-23T05:11:18;99172.66;;;10.33;74.86
12636;BME280;6383;50.830;7.210;2022-11-23T05:14:20;99161.78;;;10.33;75.06
12636;BME280;6383;50.830;7.210;2022-11-23T05:17:18;99181.63;;;10.34;74.70
12636;BME280;6383;50.830;7.210;2022-11-23T05:20:18;99173.00;;;10.32;74.76
12636;BME280;6383;50.830;7.210;2022-11-23T05:23:22;99176.03;;;10.30;74.52
12636;BME280;6383;50.830;7.210;2022-11-23T05:26:22;99183.06;;;10.31;74.79
12636;BME280;6383;50.830;7.210;2022-11-23T05:29:24;99189.31;;;10.32;75.14
12636;BME280;6383;50.830;7.210;2022-11-23T05:32:24;99188.19;;;10.33;74.82
12636;BME280;6383;50.830;7.210;2022-11-23T05:35:29;99192.34;;;10.30;74.83
12636;BME280;6383;50.830;7.210;2022-11-23T05:38:26;99194.28;;;10.30;75.33
12636;BME280;6383;50.830;7.210;2022-11-23T05:41:30;99188.06;;;10.29;75.17
12636;BME280;6383;50.830;7.210;2022-11-23T05:44:28;99193.63;;;10.33;75.47
12636;BME280;6383;50.830;7.210;2022-11-23T05:47:28;99195.69;;;10.36;75.01
12636;BME280;6383;50.830;7.210;2022-11-23T05:50:26;99196.00;;;10.34;75.10
12636;BME280;6383;50.830;7.210;2022-11-23T05:53:24;99188.97;;;10.33;75.00
12636;BME280;6383;50.830;7.210;2022-11-23T05:56:27;99185.13;;;10.34;74.54
